Time;durP1;ratioP1;P1;durP2;ratioP2;P2;SDS_P1;SDS_P2;PMS_P1;PMS_P2;Temp;Humidity;BMP_temperature;BMP_pressure;BME280_temperature;BME280_humidity;BME280_pressure;Samples;Min_cycle;Max_cycle;Signal;HPM_P1;HPM_P2
2021/06/25 00:00:23;;;;;;;10.60;9.67;;;;;;;17.81;66.85;101069.81;5074396;28;20285;-77
2021/06/25 00:02:49;;;;;;;12.10;10.90;;;;;;;17.80;66.86;101065.44;5068947;28;20262;-77
2021/06/25 00:05:16;;;;;;;11.40;10.37;;;;;;;17.78;66.77;101062.00;5073073;28;20286;-77
2021/06/25 00:07:43;;;;;;;11.13;10.03;;;;;;;17.77;66.80;101067.53;5076260;28;20308;-77
2021/06/25 00:10:12;;;;;;;11.70;10.50;;;;;;;17.75;66.86;101067.66;5078632;28;20266;-78
2021/06/25 00:12:39;;;;;;;11.20;10.20;;;;;;;17.73;66.90;101055.34;5076471;28;20640;-78
2021/06/25 00:15:08;;;;;;;10.43;9.47;;;;;;;17.72;67.06;101050.94;5074621;28;20236;-77
2021/06/25 00:17:35;;;;;;;9.80;8.90;;;;;;;17.69;67.17;101052.91;5067884;28;20646;-78
2021/06/25 00:20:02;;;;;;;10.57;9.67;;;;;;;17.69;67.33;101055.59;5071846;28;20659;-79
2021/06/25 00:22:28;;;;;;;10.50;9.63;;;;;;;17.70;67.38;101064.53;5059887;28;20582;-79
2021/06/25 00:24:55;;;;;;;11.47;10.37;;;;;;;17.71;67.22;101068.94;5063626;28;20231;-78
2021/06/25 00:27:23;;;;;;;11.60;10.53;;;;;;;17.72;67.36;101064.41;5074687;28;20290;-77
2021/06/25 00:29:51;;;;;;;10.80;9.33;;;;;;;17.72;67.31;101069.78;5081792;28;20851;-77
2021/06/25 00:32:17;;;;;;;11.03;10.03;;;;;;;17.72;67.40;101070.63;5079727;28;20231;-76
2021/06/25 00:34:44;;;;;;;11.37;10.23;;;;;;;17.74;67.35;101075.88;5075489;28;20291;-77
2021/06/25 00:37:11;;;;;;;11.30;10.10;;;;;;;17.73;67.21;101071.50;5072643;28;20291;-77
2021/06/25 00:39:38;;;;;;;11.73;10.40;;;;;;;17.72;67.18;101072.47;5084367;28;20261;-77
2021/06/25 00:42:07;;;;;;;10.30;9.33;;;;;;;17.71;67.39;101071.63;5073299;28;20235;-77
2021/06/25 00:44:39;;;;;;;11.20;10.23;;;;;;;17.70;67.23;101067.22;5076199;28;20209;-77
2021/06/25 00:47:06;;;;;;;10.50;9.30;;;;;;;17.69;67.28;101066.38;5074036;28;20226;-77
2021/06/25 00:49:33;;;;;;;10.97;9.90;;;;;;;17.70;67.26;101075.31;5075664;28;20294;-77
2021/06/25 00:51:59;;;;;;;11.73;10.63;;;;;;;17.72;67.32;101076.03;5075897;28;20261;-77
2021/06/25 00:54:26;;;;;;;11.10;10.00;;;;;;;17.72;67.42;101080.56;5081940;28;20288;-79
2021/06/25 00:56:53;;;;;;;11.20;10.20;;;;;;;17.70;67.43;101075.31;5069612;28;20219;-78
2021/06/25 00:59:19;;;;;;;10.67;9.67;;;;;;;17.69;67.42;101079.84;5085020;28;20254;-77
2021/06/25 01:01:47;;;;;;;10.83;9.83;;;;;;;17.69;67.40;101077.16;5078266;28;20291;-78
2021/06/25 01:04:14;;;;;;;11.97;10.77;;;;;;;17.67;67.28;101068.34;5077199;28;20297;-77
2021/06/25 01:06:41;;;;;;;12.70;10.77;;;;;;;17.64;67.55;101075.81;5071417;28;20697;-78
2021/06/25 01:09:09;;;;;;;11.57;10.47;;;;;;;17.64;67.45;101067.75;5078108;28;20319;-77
2021/06/25 01:11:36;;;;;;;12.80;11.50;;;;;;;17.62;67.56;101065.16;5072223;28;20211;-77
2021/06/25 01:14:03;;;;;;;10.53;9.47;;;;;;;17.62;67.51;101069.69;5070816;28;20299;-77
2021/06/25 01:16:31;;;;;;;11.87;10.77;;;;;;;17.61;67.54;101057.19;5079457;28;20303;-77
2021/06/25 01:18:59;;;;;;;11.20;10.13;;;;;;;17.60;67.57;101056.34;5072640;28;20248;-77
2021/06/25 01:21:27;;;;;;;12.03;10.87;;;;;;;17.60;67.58;101053.66;5082112;28;20209;-77
2021/06/25 01:23:54;;;;;;;11.63;10.63;;;;;;;17.58;67.60;101050.22;5073531;28;20235;-77
2021/06/25 01:26:20;;;;;;;15.43;10.70;;;;;;;17.57;67.84;101056.59;5078728;28;20246;-77
2021/06/25 01:28:47;;;;;;;11.73;10.63;;;;;;;17.55;68.00;101052.34;5075142;28;20264;-77
2021/06/25 01:31:14;;;;;;;12.03;10.93;;;;;;;17.54;68.09;101045.25;5080782;28;20702;-77
2021/06/25 01:33:40;;;;;;;12.53;11.33;;;;;;;17.51;68.40;101046.38;5080681;28;20234;-77
2021/06/25 01:36:08;;;;;;;12.53;11.33;;;;;;;17.50;68.61;101043.81;5080776;28;20239;-77
2021/06/25 01:38:37;;;;;;;12.13;10.87;;;;;;;17.49;68.87;101039.41;5084721;28;20310;-78
2021/06/25 01:41:04;;;;;;;14.67;11.80;;;;;;;17.48;69.13;101040.41;5074149;28;20236;-77
2021/06/25 01:43:32;;;;;;;12.13;11.03;;;;;;;17.48;69.17;101045.78;5078630;28;20254;-78
2021/06/25 01:45:59;;;;;;;13.93;12.07;;;;;;;17.47;69.22;101054.84;5073471;28;20286;-78
2021/06/25 01:48:26;;;;;;;12.23;11.00;;;;;;;17.46;69.25;101048.59;5078071;28;20500;-78
2021/06/25 01:50:54;;;;;;;12.90;11.70;;;;;;;17.45;69.44;101046.03;5089136;28;20234;-78
2021/06/25 01:53:20;;;;;;;12.03;10.73;;;;;;;17.43;69.48;101050.69;5078265;28;20248;-77
2021/06/25 01:55:50;;;;;;;11.00;10.00;;;;;;;17.40;69.65;101048.25;5080590;28;20315;-77
2021/06/25 01:58:19;;;;;;;10.90;9.77;;;;;;;17.34;69.87;101050.50;5081084;28;20226;-77
2021/06/25 02:00:51;;;;;;;11.10;10.03;;;;;;;17.28;70.02;101044.78;5081161;28;20203;-77
2021/06/25 02:03:18;;;;;;;10.90;9.80;;;;;;;17.22;70.42;101043.47;5072512;28;20717;-77
2021/06/25 02:05:45;;;;;;;10.30;9.30;;;;;;;17.18;70.50;101038.50;5082126;28;20234;-77
2021/06/25 02:08:11;;;;;;;13.67;10.13;;;;;;;17.14;70.62;101040.59;5078726;28;20263;-77
2021/06/25 02:10:38;;;;;;;10.77;9.73;;;;;;;17.13;70.79;101036.19;5078635;28;20207;-77
2021/06/25 02:13:06;;;;;;;10.43;9.37;;;;;;;17.11;70.61;101045.38;5077466;28;20313;-77
2021/06/25 02:15:33;;;;;;;11.40;10.33;;;;;;;17.08;70.65;101041.09;5071456;28;20242;-77
2021/06/25 02:17:59;;;;;;;10.83;9.70;;;;;;;17.06;70.87;101051.13;5077801;28;20228;-77
2021/06/25 02:20:26;;;;;;;11.60;10.30;;;;;;;17.03;70.85;101046.00;5075784;28;20287;-78
2021/06/25 02:22:53;;;;;;;12.63;11.43;;;;;;;17.02;71.04;101043.47;5072276;28;20273;-78
2021/06/25 02:25:19;;;;;;;14.17;12.37;;;;;;;17.00;71.21;101046.28;5092684;28;20211;-78
2021/06/25 02:27:46;;;;;;;13.30;11.93;;;;;;;16.98;71.35;101050.94;5076634;28;20275;-78
2021/06/25 02:30:17;;;;;;;12.57;11.47;;;;;;;16.95;71.57;101043.13;5087945;28;20268;-78
2021/06/25 02:32:44;;;;;;;13.47;11.77;;;;;;;16.94;71.67;101039.56;5072979;28;20195;-77
2021/06/25 02:35:11;;;;;;;12.70;11.60;;;;;;;16.93;71.83;101040.56;5070417;28;20209;-77
2021/06/25 02:37:38;;;;;;;12.83;11.63;;;;;;;16.91;71.84;101033.59;5076403;28;20282;-78
2021/06/25 02:40:06;;;;;;;13.97;12.57;;;;;;;16.89;72.04;101032.84;5077899;28;20253;-77
2021/06/25 02:42:33;;;;;;;14.00;12.60;;;;;;;16.86;72.15;101033.09;5066611;28;20289;-77
2021/06/25 02:44:59;;;;;;;13.17;11.90;;;;;;;16.83;72.14;101028.00;5076143;28;20293;-77
2021/06/25 02:47:28;;;;;;;13.77;12.37;;;;;;;16.83;72.36;101017.25;5074533;28;20271;-77
2021/06/25 02:49:54;;;;;;;12.23;11.10;;;;;;;16.81;72.39;101016.53;5074536;28;20238;-77
2021/06/25 02:52:21;;;;;;;13.07;11.87;;;;;;;16.80;72.51;101015.66;5073170;28;20291;-77
2021/06/25 02:54:47;;;;;;;13.57;12.27;;;;;;;16.79;72.48;101016.66;5075644;28;20302;-77
2021/06/25 02:57:14;;;;;;;13.30;12.00;;;;;;;16.80;72.51;101004.91;5079847;28;20275;-78
2021/06/25 02:59:40;;;;;;;14.07;12.53;;;;;;;16.81;73.09;101017.38;5074686;28;20254;-78
2021/06/25 03:02:07;;;;;;;13.67;12.30;;;;;;;16.80;72.94;101001.34;5082821;28;20676;-78
2021/06/25 03:04:35;;;;;;;13.50;12.20;;;;;;;16.81;72.83;101003.06;5076436;28;20264;-78
2021/06/25 03:07:02;;;;;;;14.40;12.90;;;;;;;16.80;72.71;101002.22;5072559;28;20229;-78
2021/06/25 03:09:28;;;;;;;14.47;12.97;;;;;;;16.79;72.85;101003.19;5078023;28;20273;-78
2021/06/25 03:11:55;;;;;;;14.43;12.90;;;;;;;16.77;72.93;101002.47;5076127;28;20206;-77
2021/06/25 03:14:21;;;;;;;14.03;12.63;;;;;;;16.76;72.97;100999.91;5075138;28;20297;-78
2021/06/25 03:16:48;;;;;;;12.57;11.33;;;;;;;16.76;73.10;100999.91;5070354;28;20296;-78
2021/06/25 03:19:15;;;;;;;13.30;12.03;;;;;;;16.75;73.02;100998.19;5075824;28;20281;-78
2021/06/25 03:21:43;;;;;;;13.47;12.17;;;;;;;16.75;72.95;101000.88;5072655;28;20243;-78
2021/06/25 03:24:10;;;;;;;13.87;12.57;;;;;;;16.73;73.39;100989.41;5076980;28;20286;-77
2021/06/25 03:26:37;;;;;;;13.73;12.40;;;;;;;16.72;73.07;100993.06;5074825;28;20265;-77
2021/06/25 03:29:03;;;;;;;13.47;12.00;;;;;;;16.71;73.07;100996.72;5077671;28;20686;-77
2021/06/25 03:31:30;;;;;;;13.90;12.70;;;;;;;16.69;72.93;100993.31;5079915;28;20242;-77
2021/06/25 03:33:57;;;;;;;12.57;11.47;;;;;;;16.66;73.21;100992.59;5083826;28;20248;-77
2021/06/25 03:36:23;;;;;;;13.43;12.10;;;;;;;16.65;73.03;100993.59;5080268;28;20256;-77
2021/06/25 03:38:51;;;;;;;13.90;12.27;;;;;;;16.66;73.21;100999.78;5078030;28;20219;-77
2021/06/25 03:41:18;;;;;;;13.43;12.07;;;;;;;16.65;73.05;100993.59;5068680;28;20234;-77
2021/06/25 03:43:45;;;;;;;14.20;12.80;;;;;;;16.67;73.48;100990.75;5078683;28;20238;-78
2021/06/25 03:46:11;;;;;;;16.30;12.60;;;;;;;16.67;73.36;100980.00;5080446;28;20702;-78
2021/06/25 03:48:38;;;;;;;15.33;12.77;;;;;;;16.69;73.63;100977.19;5081367;28;20230;-78
2021/06/25 03:51:05;;;;;;;13.17;11.93;;;;;;;16.67;73.55;100980.84;5079594;28;20241;-78
2021/06/25 03:53:32;;;;;;;12.60;11.30;;;;;;;16.68;73.44;100987.09;5084664;28;20233;-77
2021/06/25 03:58:42;;;;;;;11.77;10.67;;;;;;;16.65;73.23;100987.38;5075464;28;20230;-78
2021/06/25 04:01:09;;;;;;;13.47;12.07;;;;;;;16.63;73.43;100984.81;5076917;28;20236;-80
2021/06/25 04:03:36;;;;;;;13.00;11.53;;;;;;;16.65;73.16;100988.22;5074158;28;20242;-78
2021/06/25 04:06:02;;;;;;;12.47;11.27;;;;;;;16.66;73.23;100987.22;5077807;28;21113;-77
2021/06/25 04:08:30;;;;;;;14.17;12.87;;;;;;;16.68;73.47;100987.09;5074668;28;20293;-77
2021/06/25 04:10:57;;;;;;;13.13;11.80;;;;;;;16.69;73.35;100987.94;5074557;28;20242;-78
2021/06/25 04:13:26;;;;;;;13.63;12.23;;;;;;;16.70;73.14;100981.56;5071613;28;20200;-78
2021/06/25 04:15:53;;;;;;;13.83;12.43;;;;;;;16.70;73.27;100978.88;5071078;28;20264;-78
2021/06/25 04:18:20;;;;;;;13.83;12.37;;;;;;;16.69;73.26;100978.03;5068214;28;20713;-78
2021/06/25 04:20:47;;;;;;;14.03;12.57;;;;;;;16.71;73.32;100985.97;5078383;28;20292;-77
2021/06/25 04:23:14;;;;;;;13.93;12.53;;;;;;;16.72;73.49;100990.38;5077200;28;20230;-77
2021/06/25 04:25:41;;;;;;;16.50;13.60;;;;;;;16.73;73.11;100995.63;5074258;28;20290;-77
2021/06/25 04:28:08;;;;;;;16.63;13.13;;;;;;;16.75;73.38;100998.19;5070769;28;20214;-77
2021/06/25 04:30:38;;;;;;;13.57;11.97;;;;;;;16.76;73.32;100999.91;5069254;28;20287;-78
2021/06/25 04:33:05;;;;;;;13.37;12.00;;;;;;;16.76;73.44;100995.38;5065548;28;20271;-77
2021/06/25 04:35:32;;;;;;;13.37;12.17;;;;;;;16.78;73.24;101003.31;5067508;28;20257;-78
2021/06/25 04:38:01;;;;;;;13.50;12.10;;;;;;;16.78;73.32;101001.47;5068818;28;20228;-78
2021/06/25 04:40:28;;;;;;;14.13;12.73;;;;;;;16.81;73.17;101003.06;5068563;28;20207;-78
2021/06/25 04:42:55;;;;;;;13.80;12.60;;;;;;;16.84;73.18;101003.63;5071684;28;20202;-77
2021/06/25 04:45:21;;;;;;;13.57;12.17;;;;;;;16.87;73.16;100997.16;5071473;28;20256;-77
2021/06/25 04:47:49;;;;;;;14.30;12.47;;;;;;;16.88;72.83;100997.03;5069472;28;20619;-77
2021/06/25 04:50:16;;;;;;;13.33;12.00;;;;;;;16.90;72.98;100996.91;5073743;28;20737;-77
2021/06/25 04:52:43;;;;;;;13.47;12.00;;;;;;;16.90;72.81;100989.69;5071337;28;20208;-77
2021/06/25 04:55:10;;;;;;;13.40;12.00;;;;;;;16.94;72.81;100990.28;5069290;28;20269;-78
2021/06/25 04:57:37;;;;;;;13.97;11.77;;;;;;;16.99;72.72;100988.06;5068463;28;20269;-79
2021/06/25 05:00:06;;;;;;;12.87;11.57;;;;;;;17.02;72.58;100998.53;5076436;28;20237;-79
2021/06/25 05:02:32;;;;;;;12.40;10.83;;;;;;;17.06;72.51;100991.94;5071529;28;20408;-78
2021/06/25 05:05:00;;;;;;;12.53;11.33;;;;;;;17.11;72.37;100988.84;5074075;28;20294;-78
2021/06/25 05:07:27;;;;;;;12.37;11.07;;;;;;;17.14;72.10;100994.84;5070389;28;20292;-78
2021/06/25 05:09:54;;;;;;;12.53;11.40;;;;;;;17.18;71.90;100992.75;5065022;28;20240;-77
2021/06/25 05:12:21;;;;;;;11.80;10.70;;;;;;;17.22;71.71;100989.63;5070856;28;20292;-79
2021/06/25 05:14:47;;;;;;;10.53;9.43;;;;;;;17.29;71.54;100995.34;5068060;28;20644;-78
2021/06/25 05:17:14;;;;;;;12.20;11.00;;;;;;;17.35;71.25;100998.38;5074494;28;20229;-79
2021/06/25 05:19:40;;;;;;;11.53;10.33;;;;;;;17.40;70.90;100989.03;5074863;28;20227;-79
2021/06/25 05:22:08;;;;;;;11.17;10.07;;;;;;;17.45;70.70;100998.44;5072291;28;20322;-78
2021/06/25 05:24:35;;;;;;;13.93;10.07;;;;;;;17.50;70.53;101000.72;5072261;28;20289;-77
2021/06/25 05:27:02;;;;;;;11.57;9.63;;;;;;;17.50;70.07;100995.34;5070214;28;20294;-77
2021/06/25 05:29:28;;;;;;;14.87;11.53;;;;;;;17.51;70.09;100988.97;5068345;28;20239;-77
2021/06/25 05:31:55;;;;;;;11.90;10.73;;;;;;;17.53;70.17;100995.06;5071138;28;20222;-77
2021/06/25 05:34:21;;;;;;;12.67;11.10;;;;;;;17.56;70.22;100992.94;5076113;28;20663;-77
2021/06/25 05:36:48;;;;;;;13.67;11.10;;;;;;;17.62;70.19;100996.97;5082437;28;20212;-78
2021/06/25 05:39:16;;;;;;;11.70;10.50;;;;;;;17.68;70.10;100996.47;5067526;28;20621;-78
2021/06/25 05:41:42;;;;;;;13.20;11.93;;;;;;;17.73;70.15;101006.84;5069037;28;20294;-77
2021/06/25 05:44:09;;;;;;;12.60;11.50;;;;;;;17.74;70.33;101001.28;5063864;28;20265;-77
2021/06/25 05:46:36;;;;;;;12.90;11.60;;;;;;;17.79;70.40;101008.97;5067130;28;20336;-77
2021/06/25 05:49:02;;;;;;;13.90;11.97;;;;;;;17.82;70.43;101006.88;5070929;28;20893;-76
2021/06/25 05:51:29;;;;;;;13.03;11.77;;;;;;;17.88;70.43;101009.03;5070421;28;20215;-76
2021/06/25 05:53:56;;;;;;;15.03;12.13;;;;;;;17.94;70.36;101013.00;5068285;28;20306;-76
2021/06/25 05:56:24;;;;;;;13.37;12.07;;;;;;;18.00;70.40;101013.34;5067274;28;20404;-76
2021/06/25 05:58:51;;;;;;;17.27;12.73;;;;;;;18.06;70.20;101020.03;5070574;28;20625;-77
2021/06/25 06:01:17;;;;;;;14.50;13.10;;;;;;;18.10;69.78;101017.88;5066633;28;20201;-76
2021/06/25 06:03:45;;;;;;;14.63;13.13;;;;;;;18.11;69.15;101023.16;5075416;28;20237;-76
2021/06/25 06:06:12;;;;;;;13.53;12.13;;;;;;;18.12;69.01;101026.69;5066018;28;20204;-77
2021/06/25 06:08:38;;;;;;;13.93;12.60;;;;;;;18.13;68.98;101031.09;5072983;28;20332;-77
2021/06/25 06:11:05;;;;;;;14.40;12.90;;;;;;;18.13;68.76;101020.31;5074041;28;20685;-78
2021/06/25 06:13:33;;;;;;;15.20;13.07;;;;;;;18.15;68.56;101029.97;5069393;28;20235;-78
2021/06/25 06:16:00;;;;;;;17.17;13.20;;;;;;;18.18;68.26;101028.84;5067892;28;20240;-78
2021/06/25 06:18:29;;;;;;;14.10;12.70;;;;;;;18.20;68.28;101026.88;5069083;28;20268;-78
2021/06/25 06:20:56;;;;;;;15.73;14.00;;;;;;;18.25;68.01;101036.28;5067337;28;20198;-77
2021/06/25 06:31:39;;;;;;;13.73;12.20;;;;;;;18.38;67.14;101036.03;5073430;28;20220;-78
2021/06/25 06:34:10;;;;;;;14.93;13.43;;;;;;;18.42;66.93;101032.06;5065411;28;20627;-78
2021/06/25 06:36:41;;;;;;;15.27;13.67;;;;;;;18.44;66.53;101029.22;5069166;28;20205;-76
2021/06/25 06:39:08;;;;;;;14.63;13.20;;;;;;;18.46;66.19;101030.78;5067870;28;20223;-78
2021/06/25 06:41:36;;;;;;;14.83;13.43;;;;;;;18.47;66.18;101026.22;5068210;28;20226;-78
2021/06/25 06:44:05;;;;;;;15.00;13.47;;;;;;;18.48;66.04;101031.50;5069547;28;20289;-78
2021/06/25 06:46:32;;;;;;;14.87;13.37;;;;;;;18.48;65.99;101030.63;5072043;28;20243;-78
2021/06/25 06:48:59;;;;;;;15.23;12.67;;;;;;;18.48;65.60;101030.63;5076090;28;20321;-78
2021/06/25 06:51:25;;;;;;;13.40;12.20;;;;;;;18.46;65.64;101032.63;5074680;28;20205;-78
2021/06/25 06:53:53;;;;;;;14.50;12.93;;;;;;;18.45;65.80;101037.16;5073457;28;20239;-78
2021/06/25 06:56:21;;;;;;;13.70;12.40;;;;;;;18.48;65.84;101039.56;5070661;28;20249;-77
2021/06/25 06:58:48;;;;;;;13.97;12.53;;;;;;;18.49;65.86;101032.34;5072855;28;20225;-77
2021/06/25 07:01:16;;;;;;;16.30;12.60;;;;;;;18.51;66.01;101042.00;5068560;28;20284;-78
2021/06/25 07:03:43;;;;;;;13.67;12.23;;;;;;;18.53;66.16;101037.31;5068529;28;20212;-77
2021/06/25 07:06:10;;;;;;;14.70;13.20;;;;;;;18.59;66.15;101042.22;5071065;28;20201;-77
2021/06/25 07:08:36;;;;;;;19.63;13.03;;;;;;;18.64;66.26;101039.06;5074785;28;20758;-78
2021/06/25 07:11:03;;;;;;;14.03;12.73;;;;;;;18.72;66.30;101042.78;5070894;28;20228;-78
2021/06/25 07:13:30;;;;;;;14.37;12.93;;;;;;;18.79;66.21;101039.53;5069460;28;20210;-78
2021/06/25 07:15:57;;;;;;;14.03;12.63;;;;;;;18.87;65.67;101039.66;5074638;28;20204;-79
2021/06/25 07:18:25;;;;;;;16.57;13.67;;;;;;;18.90;65.08;101044.78;5064330;28;20225;-78
2021/06/25 07:20:52;;;;;;;14.63;13.20;;;;;;;18.91;64.97;101039.25;5068148;28;20209;-79
2021/06/25 07:23:19;;;;;;;13.73;12.53;;;;;;;18.93;64.87;101042.66;5069527;28;20302;-78
2021/06/25 07:25:46;;;;;;;14.10;12.80;;;;;;;19.00;64.87;101043.78;5070400;28;20212;-78
2021/06/25 07:28:13;;;;;;;14.40;13.03;;;;;;;19.07;64.59;101039.53;5069906;28;20198;-78
2021/06/25 07:30:40;;;;;;;13.97;12.47;;;;;;;19.13;64.17;101042.69;5073701;28;20327;-78
2021/06/25 07:33:07;;;;;;;13.33;12.03;;;;;;;19.17;64.15;101041.41;5067266;28;20259;-77
2021/06/25 07:35:34;;;;;;;13.33;11.83;;;;;;;19.19;64.13;101032.13;5081135;28;20213;-78
2021/06/25 07:38:01;;;;;;;13.27;11.93;;;;;;;19.25;64.18;101028.88;5087136;28;20665;-78
2021/06/25 07:40:28;;;;;;;15.23;13.33;;;;;;;19.30;64.02;101033.84;5075803;28;20275;-77
2021/06/25 07:42:54;;;;;;;15.00;13.60;;;;;;;19.32;63.99;101035.41;5069964;28;20277;-77
2021/06/25 07:45:21;;;;;;;14.67;13.17;;;;;;;19.33;63.90;101029.03;5074959;28;20204;-77
2021/06/25 07:47:47;;;;;;;18.20;13.47;;;;;;;19.35;63.79;101032.41;5080580;28;20212;-77
2021/06/25 07:50:16;;;;;;;15.70;14.07;;;;;;;19.34;63.45;101030.72;5068022;28;20598;-77
2021/06/25 07:52:45;;;;;;;13.97;12.63;;;;;;;19.30;63.59;101033.84;5066713;28;20208;-78
2021/06/25 07:55:13;;;;;;;13.87;12.57;;;;;;;19.29;63.85;101029.44;5081431;28;20212;-79
2021/06/25 07:57:40;;;;;;;14.57;12.90;;;;;;;19.31;63.99;101025.59;5076081;28;20213;-79
2021/06/25 08:00:09;;;;;;;14.43;13.17;;;;;;;19.32;64.14;101027.31;5083575;28;20215;-79
2021/06/25 08:02:35;;;;;;;15.23;13.80;;;;;;;19.33;64.25;101034.41;5083782;28;20210;-78
2021/06/25 08:05:02;;;;;;;16.50;14.83;;;;;;;19.37;64.43;101037.66;5083381;28;20714;-77
2021/06/25 08:07:29;;;;;;;16.87;15.20;;;;;;;19.39;64.30;101022.16;5081598;28;20230;-78
2021/06/25 08:09:57;;;;;;;17.13;15.20;;;;;;;19.45;64.04;101028.84;5066639;28;20711;-77
2021/06/25 08:12:23;;;;;;;19.00;14.37;;;;;;;19.56;64.13;101026.84;5075744;28;20218;-78
2021/06/25 08:14:50;;;;;;;14.83;13.30;;;;;;;19.70;64.18;101031.81;5084896;28;20212;-77
2021/06/25 08:17:16;;;;;;;14.57;12.90;;;;;;;19.89;64.19;101025.47;5073792;28;20226;-78
2021/06/25 08:19:43;;;;;;;16.47;14.50;;;;;;;20.01;63.58;101018.03;5076511;28;20321;-77
2021/06/25 08:22:09;;;;;;;14.70;13.30;;;;;;;20.11;63.03;101022.38;5082113;28;20207;-77
2021/06/25 08:24:36;;;;;;;14.67;13.07;;;;;;;20.23;62.80;101019.50;5091212;28;20203;-77
2021/06/25 08:27:05;;;;;;;14.50;13.20;;;;;;;20.32;62.06;101016.72;5085306;28;20205;-77
2021/06/25 08:29:31;;;;;;;14.17;12.93;;;;;;;20.44;61.89;101014.69;5075268;28;20621;-77
2021/06/25 08:31:58;;;;;;;15.90;13.27;;;;;;;20.56;61.57;101018.91;5082670;28;20425;-77
2021/06/25 08:34:25;;;;;;;16.67;12.50;;;;;;;20.62;60.61;101022.84;5063167;28;20203;-77
2021/06/25 08:36:52;;;;;;;16.60;12.83;;;;;;;20.63;60.33;101022.69;5086651;28;20249;-77
2021/06/25 08:39:18;;;;;;;13.70;12.40;;;;;;;20.69;60.46;101018.53;5067766;28;20241;-78
2021/06/25 08:41:45;;;;;;;14.30;12.53;;;;;;;20.75;60.34;101012.50;5066707;28;20204;-78
2021/06/25 08:44:13;;;;;;;17.53;14.70;;;;;;;20.82;60.08;101010.00;5073745;28;20201;-78
2021/06/25 08:46:40;;;;;;;17.13;15.57;;;;;;;20.88;59.86;101010.25;5075052;28;20207;-78
2021/06/25 08:49:06;;;;;;;17.70;16.10;;;;;;;20.95;59.46;101005.09;5071044;28;20233;-79
2021/06/25 08:51:34;;;;;;;17.07;15.27;;;;;;;20.99;59.09;101001.88;5073074;28;20232;-78
2021/06/25 08:54:01;;;;;;;16.00;14.50;;;;;;;21.04;59.07;101009.56;5084676;28;20240;-78
2021/06/25 08:56:31;;;;;;;16.87;15.27;;;;;;;21.04;58.88;101013.13;5076564;28;20236;-78
2021/06/25 08:58:58;;;;;;;17.00;15.37;;;;;;;21.00;59.08;101009.00;5063856;28;20217;-78
2021/06/25 09:01:26;;;;;;;17.77;16.17;;;;;;;21.03;59.03;101016.81;5072535;28;20212;-78
2021/06/25 09:03:54;;;;;;;17.87;15.47;;;;;;;21.06;58.93;101008.41;5084103;28;20207;-78
2021/06/25 09:06:21;;;;;;;17.97;16.17;;;;;;;21.13;59.02;101011.34;5064056;28;20212;-78
2021/06/25 09:08:47;;;;;;;17.00;15.50;;;;;;;21.17;58.42;101012.69;5077037;28;20826;-78
2021/06/25 09:11:20;;;;;;;17.30;15.73;;;;;;;21.19;58.42;101013.41;5076862;28;20246;-77
2021/06/25 09:13:46;;;;;;;19.33;16.13;;;;;;;21.21;58.54;101007.84;5079823;28;20213;-77
2021/06/25 09:16:21;;;;;;;18.00;15.93;;;;;;;21.23;58.17;101003.13;5082627;28;20717;-77
2021/06/25 09:19:01;;;;;;;17.43;15.80;;;;;;;21.27;58.39;101013.50;5079449;28;20234;-77
2021/06/25 09:21:30;;;;;;;16.70;15.17;;;;;;;21.30;58.54;101010.50;5077697;28;20653;-77
2021/06/25 09:23:56;;;;;;;18.00;16.23;;;;;;;21.34;58.10;100995.59;5081368;28;20297;-79
2021/06/25 09:26:29;;;;;;;16.07;14.67;;;;;;;21.34;58.17;101002.88;5095369;28;20214;-79
2021/06/25 09:29:14;;;;;;;16.70;15.23;;;;;;;21.35;58.29;100997.31;5069496;28;20233;-79
2021/06/25 09:31:41;;;;;;;17.23;15.67;;;;;;;21.36;58.29;100993.59;5084880;28;20217;-78
2021/06/25 09:34:10;;;;;;;17.63;15.93;;;;;;;21.37;58.19;101002.56;5069519;28;20219;-79
2021/06/25 09:36:39;;;;;;;17.47;15.13;;;;;;;21.35;58.10;100997.31;5080561;28;20221;-77
2021/06/25 09:39:08;;;;;;;17.10;15.50;;;;;;;21.32;58.33;100999.47;5083214;28;20705;-78
2021/06/25 09:41:37;;;;;;;16.33;14.73;;;;;;;21.28;58.11;101004.38;5085063;28;20575;-78
2021/06/25 09:44:08;;;;;;;16.20;14.80;;;;;;;21.27;58.14;101010.81;5077287;28;20292;-78
2021/06/25 09:46:36;;;;;;;15.60;14.20;;;;;;;21.26;57.95;101011.81;5076469;28;20204;-78
2021/06/25 09:49:05;;;;;;;17.17;15.47;;;;;;;21.28;58.17;101017.94;5095265;28;20227;-77
2021/06/25 09:51:34;;;;;;;15.67;14.10;;;;;;;21.27;58.53;101013.50;5082758;28;20626;-77
2021/06/25 09:54:09;;;;;;;16.83;15.27;;;;;;;21.29;58.63;101014.22;5062256;28;20220;-77
2021/06/25 09:56:39;;;;;;;18.57;16.07;;;;;;;21.28;58.97;101015.22;5076111;28;20203;-78
2021/06/25 09:59:31;;;;;;;18.77;17.00;;;;;;;21.21;59.43;101016.84;5069776;28;20228;-77
2021/06/25 10:01:58;;;;;;;19.03;17.33;;;;;;;21.13;60.41;101014.03;5071666;28;20614;-76
2021/06/25 10:04:35;;;;;;;21.00;18.83;;;;;;;21.03;60.91;101005.13;5083463;28;20206;-76
2021/06/25 10:07:14;;;;;;;20.40;18.50;;;;;;;20.94;61.85;101008.81;5073609;28;20213;-76
2021/06/25 10:09:42;;;;;;;20.13;18.23;;;;;;;20.87;62.68;101010.41;5083534;28;20618;-76
2021/06/25 10:12:11;;;;;;;19.63;17.70;;;;;;;20.81;62.67;101017.28;5073055;28;20228;-76
2021/06/25 10:14:37;;;;;;;19.90;17.90;;;;;;;20.74;62.80;101017.06;5070826;28;20215;-76
2021/06/25 10:17:05;;;;;;;21.87;19.57;;;;;;;20.68;63.49;101017.69;5067724;28;20205;-76
2021/06/25 10:19:33;;;;;;;20.93;18.93;;;;;;;20.69;63.97;101019.38;5080471;28;20280;-76
2021/06/25 10:22:02;;;;;;;21.43;19.17;;;;;;;20.68;63.88;101009.56;5073191;28;20209;-77
2021/06/25 10:24:33;;;;;;;21.00;18.90;;;;;;;20.66;63.99;101011.56;5081627;28;20211;-77
2021/06/25 10:27:02;;;;;;;21.17;18.97;;;;;;;20.67;64.35;101004.28;5082648;28;20202;-76
2021/06/25 10:29:29;;;;;;;20.27;18.33;;;;;;;20.68;63.96;101000.59;5075328;28;20225;-77
2021/06/25 10:31:56;;;;;;;19.17;17.43;;;;;;;20.70;63.46;101001.28;5074706;28;20697;-76
2021/06/25 10:34:23;;;;;;;19.80;17.77;;;;;;;20.68;63.56;100998.72;5080951;28;20299;-77
2021/06/25 10:36:51;;;;;;;18.57;16.77;;;;;;;20.71;63.28;100998.44;5060819;28;20217;-76
2021/06/25 10:39:18;;;;;;;19.33;17.43;;;;;;;20.74;62.43;100994.56;5076215;28;20219;-76
2021/06/25 10:41:51;;;;;;;20.00;17.67;;;;;;;20.73;62.26;100999.13;5075886;28;20566;-76
2021/06/25 10:44:42;;;;;;;19.80;18.03;;;;;;;20.74;62.02;100999.97;5075438;28;20685;-76
2021/06/25 10:47:21;;;;;;;19.30;17.37;;;;;;;20.70;61.30;100994.00;5054558;28;20661;-76
2021/06/25 10:50:19;;;;;;;19.63;17.83;;;;;;;20.73;61.38;100992.88;5060864;28;20738;-76
2021/06/25 10:53:17;;;;;;;19.67;17.70;;;;;;;20.78;60.86;100995.97;5072687;28;20207;-77
2021/06/25 10:55:59;;;;;;;19.30;17.37;;;;;;;20.82;60.61;101002.75;5084774;28;20585;-76
2021/06/25 10:58:27;;;;;;;19.43;17.53;;;;;;;20.89;60.63;101009.25;5070236;28;20231;-77
2021/06/25 11:00:57;;;;;;;19.33;17.60;;;;;;;20.93;60.12;101004.38;5053585;28;20210;-77
2021/06/25 11:03:36;;;;;;;20.30;17.77;;;;;;;20.96;59.60;101007.59;5082869;28;20232;-76
2021/06/25 11:06:05;;;;;;;19.47;17.67;;;;;;;20.95;59.31;100999.66;5061129;28;20682;-76
2021/06/25 11:08:31;;;;;;;19.33;17.37;;;;;;;20.96;59.05;101006.78;5068780;28;20610;-76
2021/06/25 11:10:59;;;;;;;20.80;18.93;;;;;;;20.98;59.00;101002.03;5078853;28;20227;-77
2021/06/25 11:13:28;;;;;;;20.60;18.60;;;;;;;20.99;59.09;101001.03;5072139;28;20716;-76
2021/06/25 11:15:57;;;;;;;21.27;19.27;;;;;;;20.98;59.33;101002.91;5069113;28;20202;-78
2021/06/25 11:18:25;;;;;;;21.23;19.27;;;;;;;21.00;59.69;101003.59;5075801;28;20563;-77
2021/06/25 11:20:54;;;;;;;19.73;17.90;;;;;;;21.01;60.10;101001.72;5069313;28;20203;-78
2021/06/25 11:23:24;;;;;;;21.97;19.73;;;;;;;21.03;60.58;101006.00;5066587;28;20207;-77